createdAt,value
2023-05-24T00:00:46.874Z,99.60
2023-05-24T00:03:19.319Z,99.60
2023-05-24T00:05:52.439Z,99.50
2023-05-24T00:08:24.604Z,99.70
2023-05-24T00:10:56.445Z,99.70
2023-05-24T00:13:28.388Z,99.80
2023-05-24T00:16:00.315Z,99.80
2023-05-24T00:18:32.211Z,99.80
2023-05-24T00:21:04.101Z,99.80
2023-05-24T00:23:37.182Z,99.70
2023-05-24T00:26:09.597Z,99.80
2023-05-24T00:28:44.730Z,99.90
2023-05-24T00:31:16.794Z,99.90
2023-05-24T00:33:49.256Z,99.80
2023-05-24T00:36:23.786Z,99.90
2023-05-24T00:38:55.644Z,99.80
2023-05-24T00:41:27.570Z,99.90
2023-05-24T00:43:59.510Z,99.90
2023-05-24T00:46:33.974Z,99.90
2023-05-24T00:49:06.116Z,99.90
2023-05-24T00:51:38.594Z,99.90
2023-05-24T00:54:10.642Z,99.90
2023-05-24T00:56:43.494Z,99.90
2023-05-24T00:59:15.752Z,99.90
2023-05-24T01:01:47.678Z,99.90
2023-05-24T01:04:20.550Z,99.90
2023-05-24T01:07:13.997Z,99.90
2023-05-24T01:09:51.977Z,99.90
2023-05-24T01:12:35.103Z,99.90
2023-05-24T01:15:30.721Z,99.90
2023-05-24T01:18:11.683Z,99.90
2023-05-24T01:20:44.430Z,99.90
2023-05-24T01:23:48.981Z,99.90
2023-05-24T01:26:48.869Z,99.90
2023-05-24T01:29:22.166Z,99.90
2023-05-24T01:31:54.294Z,99.90
2023-05-24T01:34:26.672Z,99.90
2023-05-24T01:36:58.677Z,99.90
2023-05-24T01:39:31.079Z,99.90
2023-05-24T01:42:20.841Z,99.90
2023-05-24T01:45:00.532Z,99.90
2023-05-24T01:48:01.101Z,99.90
2023-05-24T01:50:37.043Z,99.90
2023-05-24T01:53:13.499Z,99.90
2023-05-24T01:55:48.634Z,99.90
2023-05-24T01:58:22.950Z,99.90
2023-05-24T02:00:55.807Z,99.90
2023-05-24T02:03:27.812Z,99.90
2023-05-24T02:06:02.019Z,99.90
2023-05-24T02:08:34.017Z,99.90
2023-05-24T02:11:06.029Z,99.90
2023-05-24T02:13:37.932Z,99.90
2023-05-24T02:16:10.876Z,99.90
2023-05-24T02:18:44.616Z,99.90
2023-05-24T02:21:16.660Z,99.90
2023-05-24T02:23:48.598Z,99.90
2023-05-24T02:26:20.509Z,99.90
2023-05-24T02:28:52.504Z,99.90
2023-05-24T02:31:28.771Z,99.90
2023-05-24T02:34:01.059Z,99.90
2023-05-24T02:36:36.147Z,99.90
2023-05-24T02:39:08.719Z,99.90
2023-05-24T02:41:41.260Z,99.90
2023-05-24T02:44:13.189Z,99.90
2023-05-24T02:46:45.197Z,99.90
2023-05-24T02:49:17.142Z,99.90
2023-05-24T02:51:49.010Z,99.90
2023-05-24T02:54:20.848Z,99.90
2023-05-24T02:56:52.771Z,99.90
2023-05-24T02:59:25.498Z,99.90
2023-05-24T03:01:57.568Z,99.90
2023-05-24T03:04:31.315Z,99.90
2023-05-24T03:07:03.426Z,99.90
2023-05-24T03:09:35.594Z,99.90
2023-05-24T03:12:07.677Z,99.90
2023-05-24T03:14:39.908Z,99.90
2023-05-24T03:17:11.870Z,99.90
2023-05-24T03:19:43.789Z,99.90
2023-05-24T03:22:15.802Z,99.90
2023-05-24T03:24:48.894Z,99.90
2023-05-24T03:27:21.321Z,99.90
2023-05-24T03:29:53.426Z,99.90
2023-05-24T03:32:28.699Z,99.90
2023-05-24T03:35:01.707Z,99.90
2023-05-24T03:37:33.868Z,99.90
2023-05-24T03:40:06.796Z,99.90
2023-05-24T03:42:54.413Z,99.90
2023-05-24T03:45:39.680Z,99.90
2023-05-24T03:48:12.094Z,99.90
2023-05-24T03:50:44.334Z,99.90
2023-05-24T03:53:16.677Z,99.90
2023-05-24T03:55:48.673Z,99.90
2023-05-24T03:58:20.731Z,99.90
2023-05-24T04:00:52.680Z,99.90
2023-05-24T04:03:26.166Z,99.90
2023-05-24T04:05:58.309Z,99.90
2023-05-24T04:08:31.549Z,99.90
2023-05-24T04:11:03.578Z,99.90
2023-05-24T04:13:36.153Z,99.90
2023-05-24T04:16:09.812Z,99.90
2023-05-24T04:18:41.889Z,99.90
2023-05-24T04:21:14.000Z,99.90
2023-05-24T04:23:46.196Z,99.90
2023-05-24T04:26:18.681Z,99.90
2023-05-24T04:28:50.552Z,99.90
2023-05-24T04:31:22.721Z,99.90
2023-05-24T04:33:55.211Z,99.90
2023-05-24T04:36:28.909Z,99.90
2023-05-24T04:39:05.258Z,99.90
2023-05-24T04:41:37.323Z,99.90
2023-05-24T04:44:09.873Z,99.90
2023-05-24T04:46:41.885Z,99.90
2023-05-24T04:49:13.845Z,99.90
2023-05-24T04:51:46.708Z,99.90
2023-05-24T04:54:18.717Z,99.90
2023-05-24T04:56:50.813Z,99.90
2023-05-24T04:59:22.720Z,99.90
2023-05-24T05:01:54.751Z,99.90
2023-05-24T05:04:26.736Z,99.90
2023-05-24T05:06:58.612Z,99.90
2023-05-24T05:09:30.834Z,99.90
2023-05-24T05:12:03.007Z,99.90
2023-05-24T05:14:34.898Z,99.90
2023-05-24T05:17:06.761Z,99.90
2023-05-24T05:19:38.697Z,99.90
2023-05-24T05:22:11.022Z,99.90
2023-05-24T05:24:42.880Z,99.90
2023-05-24T05:27:14.826Z,99.70
2023-05-24T05:29:46.768Z,99.80
2023-05-24T05:32:18.821Z,99.30
2023-05-24T05:34:50.841Z,99.40
2023-05-24T05:37:22.743Z,99.30
2023-05-24T05:39:54.690Z,99.20
2023-05-24T05:42:26.782Z,99.00
2023-05-24T05:44:58.696Z,98.70
2023-05-24T05:47:30.656Z,98.50
2023-05-24T05:50:02.560Z,98.00
2023-05-24T05:52:34.730Z,97.80
2023-05-24T05:55:07.315Z,97.70
2023-05-24T05:57:39.321Z,97.70
2023-05-24T06:00:11.899Z,98.00
2023-05-24T06:02:46.997Z,98.80
2023-05-24T06:05:19.729Z,98.80
2023-05-24T06:07:51.623Z,98.50
2023-05-24T06:10:23.516Z,98.50
2023-05-24T06:12:55.827Z,97.80
2023-05-24T06:15:27.813Z,97.40
2023-05-24T06:18:02.249Z,96.90
2023-05-24T06:20:34.398Z,96.50
2023-05-24T06:23:07.182Z,96.60
2023-05-24T06:25:40.520Z,96.60
2023-05-24T06:28:12.438Z,96.70
2023-05-24T06:30:44.498Z,96.80
2023-05-24T06:33:16.773Z,96.50
2023-05-24T06:35:49.035Z,96.30
2023-05-24T06:38:21.588Z,95.70
2023-05-24T19:04:21.368Z,99.40
2023-05-24T19:06:53.384Z,98.90
2023-05-24T19:09:25.917Z,98.80
2023-05-24T19:12:03.510Z,99.00
2023-05-24T19:14:35.812Z,99.10
2023-05-24T19:17:08.068Z,99.10
2023-05-24T19:19:41.120Z,99.20
2023-05-24T19:22:14.729Z,99.20
2023-05-24T19:24:47.458Z,99.10
2023-05-24T19:27:20.799Z,99.40
2023-05-24T19:29:55.089Z,99.80
2023-05-24T19:32:27.807Z,99.80
2023-05-24T19:35:01.120Z,99.60
2023-05-24T19:37:33.057Z,99.50
2023-05-24T19:40:06.954Z,99.30
2023-05-24T19:42:40.417Z,98.60
2023-05-24T19:45:14.112Z,98.20
2023-05-24T19:47:46.179Z,98.10
2023-05-24T19:50:19.770Z,98.20
2023-05-24T19:52:52.248Z,97.90
2023-05-24T19:55:24.228Z,97.80
2023-05-24T19:57:57.356Z,97.80
2023-05-24T20:00:31.853Z,97.90
2023-05-24T20:03:03.948Z,97.80
2023-05-24T20:05:41.330Z,97.70
2023-05-24T20:08:13.497Z,97.70
2023-05-24T20:10:45.619Z,97.70
2023-05-24T20:13:17.666Z,97.80
2023-05-24T20:15:50.827Z,97.70
2023-05-24T20:18:26.514Z,97.90
2023-05-24T20:21:02.042Z,97.90
2023-05-24T20:23:35.538Z,97.80
2023-05-24T20:26:09.092Z,97.80
2023-05-24T20:28:41.065Z,97.80
2023-05-24T20:31:13.362Z,98.00
2023-05-24T20:33:48.232Z,97.80
2023-05-24T20:36:22.455Z,98.00
2023-05-24T20:38:55.611Z,98.10
2023-05-24T20:41:30.899Z,98.10
2023-05-24T20:44:09.781Z,98.20
2023-05-24T20:46:42.871Z,98.30
2023-05-24T20:49:18.095Z,98.30
2023-05-24T20:51:51.026Z,98.30
2023-05-24T20:54:23.031Z,98.40
2023-05-24T20:56:54.993Z,98.50
2023-05-24T20:59:35.705Z,98.60
2023-05-24T21:02:07.777Z,98.50
2023-05-24T21:04:40.185Z,98.80
2023-05-24T21:07:12.317Z,99.00
2023-05-24T21:09:44.228Z,98.90
2023-05-24T21:12:16.675Z,98.80
2023-05-24T21:14:48.617Z,98.60
2023-05-24T21:17:21.983Z,98.50
2023-05-24T21:19:54.027Z,98.40
2023-05-24T21:22:26.065Z,98.20
2023-05-24T21:24:58.206Z,98.10
2023-05-24T21:27:33.165Z,98.10
2023-05-24T21:30:07.011Z,98.10
2023-05-24T21:32:39.140Z,97.90
2023-05-24T21:35:12.103Z,97.90
2023-05-24T21:37:44.459Z,97.50
2023-05-24T21:40:17.870Z,97.40
2023-05-24T21:42:49.843Z,97.40
2023-05-24T21:45:21.832Z,97.40
2023-05-24T21:47:53.949Z,97.50
2023-05-24T21:50:26.178Z,97.70
2023-05-24T21:52:58.196Z,97.50
2023-05-24T21:55:30.200Z,97.80
2023-05-24T21:58:02.133Z,97.90
2023-05-24T22:00:34.063Z,97.80
2023-05-24T22:03:06.172Z,97.30
2023-05-24T22:05:38.732Z,97.20
2023-05-24T22:08:11.048Z,97.30
2023-05-24T22:10:43.094Z,96.80
2023-05-24T22:13:15.063Z,97.10
2023-05-24T22:15:47.026Z,96.90
2023-05-24T22:18:21.210Z,96.20
2023-05-24T22:20:53.151Z,96.00
2023-05-24T22:23:28.265Z,95.70
2023-05-24T22:26:00.271Z,95.80
2023-05-24T22:28:51.486Z,95.60
2023-05-24T22:31:25.534Z,95.70
2023-05-24T22:34:02.336Z,95.90
2023-05-24T22:36:34.834Z,95.70
2023-05-24T22:39:07.277Z,95.80
2023-05-24T22:41:39.170Z,95.80
2023-05-24T22:44:11.148Z,95.80
2023-05-24T22:46:43.166Z,95.80
2023-05-24T22:49:19.615Z,95.80
2023-05-24T22:51:53.426Z,95.80
2023-05-24T22:54:25.278Z,95.90
2023-05-24T22:56:57.138Z,96.10
2023-05-24T22:59:31.257Z,96.30
2023-05-24T23:02:04.609Z,96.50
2023-05-24T23:04:37.863Z,96.70
2023-05-24T23:07:09.889Z,96.80
2023-05-24T23:09:44.731Z,97.00
2023-05-24T23:12:18.413Z,97.20
2023-05-24T23:14:50.496Z,97.60
2023-05-24T23:17:23.750Z,97.70
2023-05-24T23:19:55.804Z,98.00
2023-05-24T23:22:27.713Z,98.00
2023-05-24T23:24:59.643Z,98.30
2023-05-24T23:27:31.602Z,98.30
2023-05-24T23:30:03.728Z,98.50
2023-05-24T23:32:35.791Z,98.70
2023-05-24T23:35:08.014Z,98.80
2023-05-24T23:37:39.971Z,99.10
2023-05-24T23:40:12.367Z,99.00
2023-05-24T23:42:44.268Z,99.10
2023-05-24T23:45:16.457Z,99.20
2023-05-24T23:47:48.358Z,99.30
2023-05-24T23:50:22.615Z,99.50
2023-05-24T23:52:55.132Z,99.60
2023-05-24T23:58:19.052Z,99.60
